sensor_id;sensor_type;location;lat;lon;timestamp;P1;durP1;ratioP1;P2;durP2;ratioP2
572;SDS011;271;51.114;13.780;2023-03-05T00:01:44;22.27;;;2.35;;
572;SDS011;271;51.114;13.780;2023-03-05T00:04:32;23.73;;;3.03;;
572;SDS011;271;51.114;13.780;2023-03-05T00:07:19;19.30;;;2.50;;
572;SDS011;271;51.114;13.780;2023-03-05T00:10:07;19.58;;;2.70;;
572;SDS011;271;51.114;13.780;2023-03-05T00:12:56;19.33;;;2.55;;
572;SDS011;271;51.114;13.780;2023-03-05T00:15:43;18.73;;;2.40;;
572;SDS011;271;51.114;13.780;2023-03-05T00:18:32;19.83;;;2.33;;
572;SDS011;271;51.114;13.780;2023-03-05T00:21:21;22.42;;;2.63;;
572;SDS011;271;51.114;13.780;2023-03-05T00:24:11;21.75;;;2.60;;
572;SDS011;271;51.114;13.780;2023-03-05T00:27:01;21.77;;;3.38;;
572;SDS011;271;51.114;13.780;2023-03-05T00:29:49;20.02;;;3.42;;
572;SDS011;271;51.114;13.780;2023-03-05T00:32:36;21.15;;;2.47;;
572;SDS011;271;51.114;13.780;2023-03-05T00:35:26;21.85;;;2.63;;
572;SDS011;271;51.114;13.780;2023-03-05T00:38:13;21.67;;;2.55;;
572;SDS011;271;51.114;13.780;2023-03-05T00:41:01;19.67;;;3.78;;
572;SDS011;271;51.114;13.780;2023-03-05T00:43:50;17.67;;;2.30;;
572;SDS011;271;51.114;13.780;2023-03-05T00:46:37;21.00;;;2.42;;
572;SDS011;271;51.114;13.780;2023-03-05T00:49:26;20.65;;;4.07;;
572;SDS011;271;51.114;13.780;2023-03-05T00:52:15;18.75;;;2.83;;
572;SDS011;271;51.114;13.780;2023-03-05T00:55:03;19.38;;;2.50;;
572;SDS011;271;51.114;13.780;2023-03-05T00:57:51;19.50;;;2.20;;
572;SDS011;271;51.114;13.780;2023-03-05T01:00:39;20.33;;;2.45;;
572;SDS011;271;51.114;13.780;2023-03-05T01:03:27;21.10;;;3.53;;
572;SDS011;271;51.114;13.780;2023-03-05T01:06:16;19.55;;;2.80;;
572;SDS011;271;51.114;13.780;2023-03-05T01:09:05;25.50;;;3.17;;
572;SDS011;271;51.114;13.780;2023-03-05T01:11:53;21.33;;;3.00;;
572;SDS011;271;51.114;13.780;2023-03-05T01:14:41;25.83;;;3.30;;
572;SDS011;271;51.114;13.780;2023-03-05T01:17:29;19.52;;;2.97;;
572;SDS011;271;51.114;13.780;2023-03-05T01:20:17;21.20;;;2.78;;
572;SDS011;271;51.114;13.780;2023-03-05T01:23:07;23.45;;;2.45;;
572;SDS011;271;51.114;13.780;2023-03-05T01:25:57;20.10;;;2.65;;
572;SDS011;271;51.114;13.780;2023-03-05T01:28:45;19.58;;;2.33;;
572;SDS011;271;51.114;13.780;2023-03-05T01:31:33;21.88;;;2.85;;
572;SDS011;271;51.114;13.780;2023-03-05T01:34:21;22.90;;;2.13;;
572;SDS011;271;51.114;13.780;2023-03-05T01:37:08;18.73;;;2.10;;
572;SDS011;271;51.114;13.780;2023-03-05T01:39:56;19.55;;;2.50;;
572;SDS011;271;51.114;13.780;2023-03-05T01:42:46;27.17;;;2.67;;
572;SDS011;271;51.114;13.780;2023-03-05T01:45:33;19.10;;;2.10;;
572;SDS011;271;51.114;13.780;2023-03-05T01:48:21;16.88;;;2.05;;
572;SDS011;271;51.114;13.780;2023-03-05T01:51:09;22.80;;;2.40;;
572;SDS011;271;51.114;13.780;2023-03-05T01:53:57;17.17;;;2.20;;
572;SDS011;271;51.114;13.780;2023-03-05T01:56:46;21.55;;;3.45;;
572;SDS011;271;51.114;13.780;2023-03-05T01:59:37;22.55;;;2.75;;
572;SDS011;271;51.114;13.780;2023-03-05T02:02:27;19.73;;;2.28;;
572;SDS011;271;51.114;13.780;2023-03-05T02:05:16;20.77;;;2.85;;
572;SDS011;271;51.114;13.780;2023-03-05T02:08:12;17.40;;;2.30;;
572;SDS011;271;51.114;13.780;2023-03-05T02:11:01;18.95;;;2.40;;
572;SDS011;271;51.114;13.780;2023-03-05T02:13:49;20.70;;;2.70;;
572;SDS011;271;51.114;13.780;2023-03-05T02:16:39;17.90;;;1.58;;
572;SDS011;271;51.114;13.780;2023-03-05T02:19:28;18.67;;;2.00;;
572;SDS011;271;51.114;13.780;2023-03-05T02:22:18;18.38;;;1.85;;
572;SDS011;271;51.114;13.780;2023-03-05T02:25:13;20.95;;;2.20;;
572;SDS011;271;51.114;13.780;2023-03-05T02:28:05;21.00;;;3.00;;
572;SDS011;271;51.114;13.780;2023-03-05T02:30:55;19.73;;;2.20;;
572;SDS011;271;51.114;13.780;2023-03-05T02:33:43;21.60;;;2.22;;
572;SDS011;271;51.114;13.780;2023-03-05T02:36:31;19.33;;;2.63;;
572;SDS011;271;51.114;13.780;2023-03-05T02:39:20;19.35;;;1.95;;
572;SDS011;271;51.114;13.780;2023-03-05T02:42:07;16.38;;;1.63;;
572;SDS011;271;51.114;13.780;2023-03-05T02:44:55;21.27;;;2.50;;
572;SDS011;271;51.114;13.780;2023-03-05T02:47:43;20.95;;;2.60;;
572;SDS011;271;51.114;13.780;2023-03-05T02:50:31;21.48;;;1.80;;
572;SDS011;271;51.114;13.780;2023-03-05T02:53:20;19.90;;;1.98;;
572;SDS011;271;51.114;13.780;2023-03-05T02:56:09;17.60;;;1.88;;
572;SDS011;271;51.114;13.780;2023-03-05T02:58:57;17.73;;;2.20;;
572;SDS011;271;51.114;13.780;2023-03-05T03:01:45;18.30;;;1.85;;
572;SDS011;271;51.114;13.780;2023-03-05T03:04:33;17.90;;;1.88;;
572;SDS011;271;51.114;13.780;2023-03-05T03:07:20;17.85;;;1.90;;
572;SDS011;271;51.114;13.780;2023-03-05T03:10:09;16.02;;;1.55;;
572;SDS011;271;51.114;13.780;2023-03-05T03:12:59;17.88;;;1.65;;
572;SDS011;271;51.114;13.780;2023-03-05T03:15:46;19.60;;;1.98;;
572;SDS011;271;51.114;13.780;2023-03-05T03:18:34;17.23;;;2.05;;
572;SDS011;271;51.114;13.780;2023-03-05T03:21:23;19.80;;;2.13;;
572;SDS011;271;51.114;13.780;2023-03-05T03:24:11;18.70;;;1.90;;
572;SDS011;271;51.114;13.780;2023-03-05T03:26:59;18.77;;;2.20;;
572;SDS011;271;51.114;13.780;2023-03-05T03:29:48;16.05;;;1.40;;
572;SDS011;271;51.114;13.780;2023-03-05T03:32:36;17.65;;;2.03;;
572;SDS011;271;51.114;13.780;2023-03-05T03:35:24;18.65;;;2.05;;
572;SDS011;271;51.114;13.780;2023-03-05T03:38:11;18.02;;;2.30;;
572;SDS011;271;51.114;13.780;2023-03-05T03:40:59;17.45;;;1.60;;
572;SDS011;271;51.114;13.780;2023-03-05T03:43:47;21.45;;;2.17;;
572;SDS011;271;51.114;13.780;2023-03-05T03:46:36;16.75;;;2.22;;
572;SDS011;271;51.114;13.780;2023-03-05T03:49:25;16.10;;;1.90;;
572;SDS011;271;51.114;13.780;2023-03-05T03:52:12;16.73;;;1.60;;
572;SDS011;271;51.114;13.780;2023-03-05T03:55:00;15.85;;;1.52;;
572;SDS011;271;51.114;13.780;2023-03-05T03:57:48;17.08;;;1.90;;
572;SDS011;271;51.114;13.780;2023-03-05T04:00:36;17.80;;;1.30;;
572;SDS011;271;51.114;13.780;2023-03-05T04:03:26;17.75;;;1.75;;
572;SDS011;271;51.114;13.780;2023-03-05T04:06:14;17.25;;;1.42;;
572;SDS011;271;51.114;13.780;2023-03-05T04:09:02;16.85;;;1.42;;
572;SDS011;271;51.114;13.780;2023-03-05T04:11:50;18.58;;;1.70;;
572;SDS011;271;51.114;13.780;2023-03-05T04:14:38;17.50;;;1.20;;
572;SDS011;271;51.114;13.780;2023-03-05T04:17:26;15.95;;;1.45;;
572;SDS011;271;51.114;13.780;2023-03-05T04:20:15;16.20;;;1.50;;
572;SDS011;271;51.114;13.780;2023-03-05T04:23:03;16.25;;;1.73;;
572;SDS011;271;51.114;13.780;2023-03-05T04:25:51;16.83;;;1.25;;
572;SDS011;271;51.114;13.780;2023-03-05T04:28:38;16.17;;;1.35;;
572;SDS011;271;51.114;13.780;2023-03-05T04:31:26;16.30;;;1.63;;
572;SDS011;271;51.114;13.780;2023-03-05T04:34:14;19.27;;;1.60;;
572;SDS011;271;51.114;13.780;2023-03-05T04:37:03;16.10;;;1.60;;
572;SDS011;271;51.114;13.780;2023-03-05T04:39:50;15.75;;;1.27;;
572;SDS011;271;51.114;13.780;2023-03-05T04:42:39;15.70;;;1.35;;
572;SDS011;271;51.114;13.780;2023-03-05T04:45:26;16.55;;;1.52;;
572;SDS011;271;51.114;13.780;2023-03-05T04:48:14;17.27;;;1.50;;
572;SDS011;271;51.114;13.780;2023-03-05T04:51:02;17.08;;;1.65;;
572;SDS011;271;51.114;13.780;2023-03-05T04:53:51;16.83;;;1.27;;
572;SDS011;271;51.114;13.780;2023-03-05T04:56:39;17.02;;;1.85;;
572;SDS011;271;51.114;13.780;2023-03-05T04:59:26;15.70;;;1.60;;
572;SDS011;271;51.114;13.780;2023-03-05T05:02:14;20.70;;;1.70;;
572;SDS011;271;51.114;13.780;2023-03-05T05:05:02;17.98;;;2.20;;
572;SDS011;271;51.114;13.780;2023-03-05T05:07:52;17.30;;;1.80;;
572;SDS011;271;51.114;13.780;2023-03-05T05:10:42;19.13;;;2.58;;
572;SDS011;271;51.114;13.780;2023-03-05T05:13:30;18.05;;;2.30;;
572;SDS011;271;51.114;13.780;2023-03-05T05:16:18;17.40;;;1.75;;
572;SDS011;271;51.114;13.780;2023-03-05T05:19:06;20.25;;;2.60;;
572;SDS011;271;51.114;13.780;2023-03-05T05:21:54;18.55;;;1.98;;
572;SDS011;271;51.114;13.780;2023-03-05T05:24:41;18.85;;;2.70;;
572;SDS011;271;51.114;13.780;2023-03-05T05:27:30;17.17;;;1.63;;
572;SDS011;271;51.114;13.780;2023-03-05T05:30:18;18.60;;;2.67;;
572;SDS011;271;51.114;13.780;2023-03-05T05:33:06;21.95;;;2.25;;
572;SDS011;271;51.114;13.780;2023-03-05T05:35:54;17.77;;;2.83;;
572;SDS011;271;51.114;13.780;2023-03-05T05:38:42;19.75;;;2.60;;
572;SDS011;271;51.114;13.780;2023-03-05T05:41:30;17.98;;;2.17;;
572;SDS011;271;51.114;13.780;2023-03-05T05:44:19;17.52;;;2.33;;
572;SDS011;271;51.114;13.780;2023-03-05T05:47:07;17.75;;;2.50;;
572;SDS011;271;51.114;13.780;2023-03-05T05:49:55;19.77;;;3.22;;
572;SDS011;271;51.114;13.780;2023-03-05T05:52:42;17.60;;;2.33;;
572;SDS011;271;51.114;13.780;2023-03-05T05:55:30;19.38;;;2.85;;
572;SDS011;271;51.114;13.780;2023-03-05T05:58:18;16.85;;;2.25;;
572;SDS011;271;51.114;13.780;2023-03-05T06:01:12;16.48;;;2.40;;
572;SDS011;271;51.114;13.780;2023-03-05T06:04:00;16.77;;;2.10;;
572;SDS011;271;51.114;13.780;2023-03-05T06:06:50;16.80;;;2.05;;
572;SDS011;271;51.114;13.780;2023-03-05T06:09:37;18.92;;;2.22;;
572;SDS011;271;51.114;13.780;2023-03-05T06:12:25;17.27;;;2.00;;
572;SDS011;271;51.114;13.780;2023-03-05T06:15:13;16.67;;;2.22;;
572;SDS011;271;51.114;13.780;2023-03-05T06:18:02;15.50;;;2.10;;
572;SDS011;271;51.114;13.780;2023-03-05T06:20:53;19.27;;;1.98;;
572;SDS011;271;51.114;13.780;2023-03-05T06:23:41;19.35;;;2.00;;
572;SDS011;271;51.114;13.780;2023-03-05T06:26:30;17.95;;;2.35;;
572;SDS011;271;51.114;13.780;2023-03-05T06:29:18;17.45;;;2.20;;
572;SDS011;271;51.114;13.780;2023-03-05T06:32:06;16.33;;;2.20;;
572;SDS011;271;51.114;13.780;2023-03-05T06:34:55;16.40;;;2.30;;
572;SDS011;271;51.114;13.780;2023-03-05T06:37:43;15.50;;;1.70;;
572;SDS011;271;51.114;13.780;2023-03-05T06:40:31;16.15;;;1.65;;
572;SDS011;271;51.114;13.780;2023-03-05T06:43:19;16.15;;;1.75;;
572;SDS011;271;51.114;13.780;2023-03-05T06:46:08;16.17;;;1.85;;
572;SDS011;271;51.114;13.780;2023-03-05T06:48:59;16.30;;;1.50;;
572;SDS011;271;51.114;13.780;2023-03-05T06:51:49;15.30;;;1.45;;
572;SDS011;271;51.114;13.780;2023-03-05T06:54:37;16.00;;;1.70;;
572;SDS011;271;51.114;13.780;2023-03-05T06:57:25;19.17;;;2.03;;
572;SDS011;271;51.114;13.780;2023-03-05T07:00:13;16.48;;;1.55;;
572;SDS011;271;51.114;13.780;2023-03-05T07:03:01;15.93;;;1.48;;
572;SDS011;271;51.114;13.780;2023-03-05T07:05:49;16.60;;;1.42;;
572;SDS011;271;51.114;13.780;2023-03-05T07:08:38;16.00;;;1.55;;
572;SDS011;271;51.114;13.780;2023-03-05T07:11:26;17.55;;;1.90;;
572;SDS011;271;51.114;13.780;2023-03-05T07:14:14;18.55;;;1.52;;
572;SDS011;271;51.114;13.780;2023-03-05T07:17:01;20.33;;;1.80;;
572;SDS011;271;51.114;13.780;2023-03-05T07:19:49;16.42;;;1.73;;
572;SDS011;271;51.114;13.780;2023-03-05T07:22:37;17.65;;;2.95;;
572;SDS011;271;51.114;13.780;2023-03-05T07:25:26;16.48;;;1.85;;
572;SDS011;271;51.114;13.780;2023-03-05T07:28:14;15.88;;;1.90;;
572;SDS011;271;51.114;13.780;2023-03-05T07:31:02;16.77;;;1.60;;
572;SDS011;271;51.114;13.780;2023-03-05T07:33:51;15.68;;;1.70;;
572;SDS011;271;51.114;13.780;2023-03-05T07:36:39;17.67;;;2.08;;
572;SDS011;271;51.114;13.780;2023-03-05T07:39:27;18.35;;;1.80;;
572;SDS011;271;51.114;13.780;2023-03-05T07:42:23;15.48;;;1.58;;
572;SDS011;271;51.114;13.780;2023-03-05T07:45:12;15.80;;;1.40;;
572;SDS011;271;51.114;13.780;2023-03-05T07:48:00;15.95;;;1.73;;
572;SDS011;271;51.114;13.780;2023-03-05T07:50:47;16.00;;;1.40;;
572;SDS011;271;51.114;13.780;2023-03-05T07:53:35;15.45;;;1.55;;
572;SDS011;271;51.114;13.780;2023-03-05T07:56:23;15.50;;;1.60;;
572;SDS011;271;51.114;13.780;2023-03-05T07:59:15;18.17;;;1.80;;
572;SDS011;271;51.114;13.780;2023-03-05T08:02:02;16.95;;;1.95;;
572;SDS011;271;51.114;13.780;2023-03-05T08:04:50;16.88;;;2.28;;
572;SDS011;271;51.114;13.780;2023-03-05T08:07:38;15.80;;;1.92;;
572;SDS011;271;51.114;13.780;2023-03-05T08:10:26;16.33;;;1.60;;
572;SDS011;271;51.114;13.780;2023-03-05T08:13:13;16.00;;;1.70;;
572;SDS011;271;51.114;13.780;2023-03-05T08:16:04;16.55;;;1.70;;
572;SDS011;271;51.114;13.780;2023-03-05T08:18:53;15.90;;;1.60;;
572;SDS011;271;51.114;13.780;2023-03-05T08:21:42;15.60;;;1.60;;
572;SDS011;271;51.114;13.780;2023-03-05T08:24:30;14.93;;;1.35;;
572;SDS011;271;51.114;13.780;2023-03-05T08:27:17;16.52;;;1.88;;
572;SDS011;271;51.114;13.780;2023-03-05T08:30:06;18.13;;;2.00;;
572;SDS011;271;51.114;13.780;2023-03-05T08:32:57;16.60;;;2.08;;
572;SDS011;271;51.114;13.780;2023-03-05T08:35:45;16.55;;;1.80;;
572;SDS011;271;51.114;13.780;2023-03-05T08:38:33;15.52;;;1.70;;
572;SDS011;271;51.114;13.780;2023-03-05T08:41:21;16.40;;;2.10;;
572;SDS011;271;51.114;13.780;2023-03-05T08:44:10;17.10;;;2.15;;
572;SDS011;271;51.114;13.780;2023-03-05T08:46:58;15.95;;;2.25;;
572;SDS011;271;51.114;13.780;2023-03-05T08:49:47;16.45;;;2.30;;
572;SDS011;271;51.114;13.780;2023-03-05T08:52:37;16.73;;;2.63;;
572;SDS011;271;51.114;13.780;2023-03-05T08:55:25;16.80;;;2.92;;
572;SDS011;271;51.114;13.780;2023-03-05T08:58:13;17.40;;;2.72;;
572;SDS011;271;51.114;13.780;2023-03-05T09:01:00;17.60;;;3.20;;
572;SDS011;271;51.114;13.780;2023-03-05T09:03:48;18.75;;;3.08;;
572;SDS011;271;51.114;13.780;2023-03-05T09:06:37;17.27;;;3.28;;
572;SDS011;271;51.114;13.780;2023-03-05T09:09:25;16.65;;;2.97;;
572;SDS011;271;51.114;13.780;2023-03-05T09:12:14;18.38;;;3.65;;
572;SDS011;271;51.114;13.780;2023-03-05T09:15:02;18.42;;;3.42;;
572;SDS011;271;51.114;13.780;2023-03-05T09:17:52;17.88;;;3.25;;
572;SDS011;271;51.114;13.780;2023-03-05T09:20:40;18.08;;;3.58;;
572;SDS011;271;51.114;13.780;2023-03-05T09:23:29;18.55;;;3.80;;
572;SDS011;271;51.114;13.780;2023-03-05T09:26:17;18.85;;;4.15;;
572;SDS011;271;51.114;13.780;2023-03-05T09:29:05;18.60;;;3.90;;
572;SDS011;271;51.114;13.780;2023-03-05T09:31:53;20.02;;;4.07;;
572;SDS011;271;51.114;13.780;2023-03-05T09:34:41;19.25;;;4.57;;
572;SDS011;271;51.114;13.780;2023-03-05T09:37:29;22.52;;;4.47;;
572;SDS011;271;51.114;13.780;2023-03-05T09:40:18;19.45;;;4.30;;
572;SDS011;271;51.114;13.780;2023-03-05T09:43:10;20.23;;;5.22;;
572;SDS011;271;51.114;13.780;2023-03-05T09:46:13;18.60;;;4.10;;
572;SDS011;271;51.114;13.780;2023-03-05T09:49:11;20.67;;;4.30;;
572;SDS011;271;51.114;13.780;2023-03-05T09:52:06;19.27;;;4.60;;
572;SDS011;271;51.114;13.780;2023-03-05T09:55:02;20.45;;;4.45;;
572;SDS011;271;51.114;13.780;2023-03-05T09:58:00;19.67;;;4.95;;
572;SDS011;271;51.114;13.780;2023-03-05T10:00:51;19.73;;;4.10;;
572;SDS011;271;51.114;13.780;2023-03-05T10:03:47;18.10;;;3.67;;
572;SDS011;271;51.114;13.780;2023-03-05T10:06:43;17.95;;;3.67;;
572;SDS011;271;51.114;13.780;2023-03-05T10:09:42;18.20;;;3.42;;
572;SDS011;271;51.114;13.780;2023-03-05T10:12:36;19.60;;;3.83;;
572;SDS011;271;51.114;13.780;2023-03-05T10:15:30;18.45;;;3.80;;
572;SDS011;271;51.114;13.780;2023-03-05T10:18:24;17.90;;;3.60;;
572;SDS011;271;51.114;13.780;2023-03-05T10:21:20;18.60;;;3.72;;
572;SDS011;271;51.114;13.780;2023-03-05T10:24:16;21.23;;;3.22;;
572;SDS011;271;51.114;13.780;2023-03-05T10:27:24;17.70;;;3.30;;
572;SDS011;271;51.114;13.780;2023-03-05T10:30:36;18.33;;;3.15;;
572;SDS011;271;51.114;13.780;2023-03-05T10:33:38;18.77;;;3.00;;
572;SDS011;271;51.114;13.780;2023-03-05T10:36:35;16.83;;;2.75;;
572;SDS011;271;51.114;13.780;2023-03-05T10:43:04;16.85;;;2.45;;
572;SDS011;271;51.114;13.780;2023-03-05T10:46:01;16.05;;;2.20;;
572;SDS011;271;51.114;13.780;2023-03-05T10:48:51;16.95;;;2.50;;
572;SDS011;271;51.114;13.780;2023-03-05T10:51:46;17.40;;;2.90;;
572;SDS011;271;51.114;13.780;2023-03-05T10:54:37;16.55;;;2.30;;
572;SDS011;271;51.114;13.780;2023-03-05T10:57:29;16.00;;;2.47;;
572;SDS011;271;51.114;13.780;2023-03-05T11:00:19;16.33;;;2.45;;
572;SDS011;271;51.114;13.780;2023-03-05T11:03:15;15.98;;;2.15;;
572;SDS011;271;51.114;13.780;2023-03-05T11:06:03;16.67;;;2.50;;
572;SDS011;271;51.114;13.780;2023-03-05T11:08:54;17.90;;;2.88;;
572;SDS011;271;51.114;13.780;2023-03-05T11:11:43;17.45;;;2.50;;
572;SDS011;271;51.114;13.780;2023-03-05T11:14:31;17.95;;;2.35;;
572;SDS011;271;51.114;13.780;2023-03-05T11:17:24;17.42;;;2.40;;
572;SDS011;271;51.114;13.780;2023-03-05T11:20:30;15.73;;;2.40;;
572;SDS011;271;51.114;13.780;2023-03-05T11:23:20;19.05;;;2.70;;
572;SDS011;271;51.114;13.780;2023-03-05T11:26:16;15.88;;;2.30;;
572;SDS011;271;51.114;13.780;2023-03-05T11:29:12;16.05;;;2.42;;
572;SDS011;271;51.114;13.780;2023-03-05T11:32:14;15.88;;;2.20;;
572;SDS011;271;51.114;13.780;2023-03-05T11:35:06;18.90;;;3.90;;
572;SDS011;271;51.114;13.780;2023-03-05T11:38:17;16.40;;;1.90;;
572;SDS011;271;51.114;13.780;2023-03-05T11:41:08;16.90;;;2.35;;
572;SDS011;271;51.114;13.780;2023-03-05T11:43:56;17.75;;;2.28;;
572;SDS011;271;51.114;13.780;2023-03-05T11:46:49;17.70;;;2.70;;
572;SDS011;271;51.114;13.780;2023-03-05T11:49:41;16.35;;;2.40;;
572;SDS011;271;51.114;13.780;2023-03-05T11:52:33;16.42;;;2.10;;
572;SDS011;271;51.114;13.780;2023-03-05T11:55:31;15.75;;;2.22;;
572;SDS011;271;51.114;13.780;2023-03-05T11:58:29;15.70;;;2.58;;
572;SDS011;271;51.114;13.780;2023-03-05T12:01:21;16.23;;;2.28;;
572;SDS011;271;51.114;13.780;2023-03-05T12:04:11;15.52;;;2.00;;
572;SDS011;271;51.114;13.780;2023-03-05T12:07:00;16.45;;;2.35;;
572;SDS011;271;51.114;13.780;2023-03-05T12:09:50;16.77;;;2.92;;
572;SDS011;271;51.114;13.780;2023-03-05T12:12:41;19.65;;;3.25;;
572;SDS011;271;51.114;13.780;2023-03-05T12:15:36;16.65;;;3.30;;
572;SDS011;271;51.114;13.780;2023-03-05T12:18:33;17.90;;;3.20;;
572;SDS011;271;51.114;13.780;2023-03-05T12:21:32;18.48;;;3.67;;
572;SDS011;271;51.114;13.780;2023-03-05T12:24:35;16.85;;;3.40;;
572;SDS011;271;51.114;13.780;2023-03-05T12:27:32;17.65;;;3.40;;
572;SDS011;271;51.114;13.780;2023-03-05T12:33:42;18.67;;;3.95;;
572;SDS011;271;51.114;13.780;2023-03-05T12:36:34;19.65;;;4.43;;
572;SDS011;271;51.114;13.780;2023-03-05T12:42:48;17.95;;;4.15;;
572;SDS011;271;51.114;13.780;2023-03-05T12:45:39;17.98;;;4.00;;
572;SDS011;271;51.114;13.780;2023-03-05T12:48:41;17.98;;;4.43;;
572;SDS011;271;51.114;13.780;2023-03-05T12:51:34;19.60;;;4.00;;
572;SDS011;271;51.114;13.780;2023-03-05T12:54:29;18.17;;;3.50;;
572;SDS011;271;51.114;13.780;2023-03-05T12:57:20;17.88;;;4.10;;
572;SDS011;271;51.114;13.780;2023-03-05T13:00:13;18.65;;;4.13;;
572;SDS011;271;51.114;13.780;2023-03-05T13:03:07;18.83;;;4.57;;
572;SDS011;271;51.114;13.780;2023-03-05T13:06:19;17.65;;;3.42;;
572;SDS011;271;51.114;13.780;2023-03-05T13:09:16;16.88;;;3.58;;
572;SDS011;271;51.114;13.780;2023-03-05T13:12:09;17.30;;;3.33;;
572;SDS011;271;51.114;13.780;2023-03-05T13:15:00;18.20;;;3.70;;
572;SDS011;271;51.114;13.780;2023-03-05T13:17:51;16.85;;;3.35;;
572;SDS011;271;51.114;13.780;2023-03-05T13:20:41;18.05;;;3.30;;
572;SDS011;271;51.114;13.780;2023-03-05T13:23:31;17.60;;;3.38;;
572;SDS011;271;51.114;13.780;2023-03-05T13:26:22;17.10;;;3.30;;
572;SDS011;271;51.114;13.780;2023-03-05T13:29:13;16.65;;;3.28;;
572;SDS011;271;51.114;13.780;2023-03-05T13:32:03;18.35;;;3.20;;
572;SDS011;271;51.114;13.780;2023-03-05T13:35:10;18.13;;;4.13;;
572;SDS011;271;51.114;13.780;2023-03-05T13:37:59;17.73;;;3.10;;
572;SDS011;271;51.114;13.780;2023-03-05T13:41:01;16.70;;;3.25;;
572;SDS011;271;51.114;13.780;2023-03-05T13:43:51;16.67;;;3.72;;
572;SDS011;271;51.114;13.780;2023-03-05T13:46:40;19.95;;;3.38;;
572;SDS011;271;51.114;13.780;2023-03-05T13:49:28;17.20;;;3.45;;
572;SDS011;271;51.114;13.780;2023-03-05T13:52:22;18.38;;;4.35;;
572;SDS011;271;51.114;13.780;2023-03-05T13:55:11;18.00;;;3.60;;
572;SDS011;271;51.114;13.780;2023-03-05T13:58:02;17.67;;;3.78;;
572;SDS011;271;51.114;13.780;2023-03-05T14:00:50;19.25;;;4.60;;
572;SDS011;271;51.114;13.780;2023-03-05T14:03:49;17.20;;;3.70;;
572;SDS011;271;51.114;13.780;2023-03-05T14:06:40;17.70;;;3.05;;
572;SDS011;271;51.114;13.780;2023-03-05T14:09:42;17.45;;;3.95;;
572;SDS011;271;51.114;13.780;2023-03-05T14:12:32;21.05;;;4.35;;
572;SDS011;271;51.114;13.780;2023-03-05T14:15:24;18.95;;;4.60;;
572;SDS011;271;51.114;13.780;2023-03-05T14:18:18;18.50;;;4.50;;
572;SDS011;271;51.114;13.780;2023-03-05T14:21:09;16.65;;;3.13;;
572;SDS011;271;51.114;13.780;2023-03-05T14:23:59;15.98;;;2.90;;
572;SDS011;271;51.114;13.780;2023-03-05T14:27:00;16.38;;;2.85;;
572;SDS011;271;51.114;13.780;2023-03-05T14:29:55;17.10;;;2.80;;
572;SDS011;271;51.114;13.780;2023-03-05T14:32:53;17.38;;;2.63;;
572;SDS011;271;51.114;13.780;2023-03-05T14:36:00;16.65;;;2.40;;
572;SDS011;271;51.114;13.780;2023-03-05T14:38:49;16.15;;;2.40;;
572;SDS011;271;51.114;13.780;2023-03-05T14:44:41;16.30;;;2.35;;
572;SDS011;271;51.114;13.780;2023-03-05T14:47:35;16.25;;;2.88;;
572;SDS011;271;51.114;13.780;2023-03-05T14:50:40;16.60;;;2.10;;
572;SDS011;271;51.114;13.780;2023-03-05T14:53:33;17.70;;;2.80;;
572;SDS011;271;51.114;13.780;2023-03-05T14:56:25;16.00;;;2.17;;
572;SDS011;271;51.114;13.780;2023-03-05T14:59:15;16.55;;;2.40;;
572;SDS011;271;51.114;13.780;2023-03-05T15:02:16;16.30;;;2.70;;
572;SDS011;271;51.114;13.780;2023-03-05T15:05:17;16.00;;;2.53;;
572;SDS011;271;51.114;13.780;2023-03-05T15:08:09;16.50;;;3.00;;
572;SDS011;271;51.114;13.780;2023-03-05T15:11:00;19.38;;;3.45;;
572;SDS011;271;51.114;13.780;2023-03-05T15:13:49;16.30;;;2.30;;
572;SDS011;271;51.114;13.780;2023-03-05T15:16:37;20.70;;;5.00;;
572;SDS011;271;51.114;13.780;2023-03-05T15:19:27;19.58;;;3.72;;
572;SDS011;271;51.114;13.780;2023-03-05T15:22:15;18.48;;;3.45;;
572;SDS011;271;51.114;13.780;2023-03-05T15:25:05;18.85;;;3.50;;
572;SDS011;271;51.114;13.780;2023-03-05T15:27:53;18.15;;;3.83;;
572;SDS011;271;51.114;13.780;2023-03-05T15:30:42;16.60;;;3.05;;
572;SDS011;271;51.114;13.780;2023-03-05T15:33:33;17.73;;;3.00;;
572;SDS011;271;51.114;13.780;2023-03-05T15:36:23;17.38;;;2.63;;
572;SDS011;271;51.114;13.780;2023-03-05T15:39:12;18.52;;;3.05;;
572;SDS011;271;51.114;13.780;2023-03-05T15:42:01;19.13;;;3.35;;
572;SDS011;271;51.114;13.780;2023-03-05T15:44:50;20.45;;;3.53;;
572;SDS011;271;51.114;13.780;2023-03-05T15:47:38;17.52;;;3.28;;
572;SDS011;271;51.114;13.780;2023-03-05T15:50:26;18.25;;;3.30;;
572;SDS011;271;51.114;13.780;2023-03-05T15:53:17;16.45;;;2.88;;
572;SDS011;271;51.114;13.780;2023-03-05T15:56:06;18.25;;;3.67;;
572;SDS011;271;51.114;13.780;2023-03-05T15:59:00;18.65;;;3.95;;
572;SDS011;271;51.114;13.780;2023-03-05T16:01:49;18.10;;;3.42;;
572;SDS011;271;51.114;13.780;2023-03-05T16:04:38;17.92;;;3.45;;
572;SDS011;271;51.114;13.780;2023-03-05T16:07:26;18.45;;;3.45;;
572;SDS011;271;51.114;13.780;2023-03-05T16:10:16;18.60;;;2.80;;
572;SDS011;271;51.114;13.780;2023-03-05T16:13:08;18.83;;;3.70;;
572;SDS011;271;51.114;13.780;2023-03-05T16:16:01;18.02;;;3.38;;
572;SDS011;271;51.114;13.780;2023-03-05T16:18:50;20.30;;;4.47;;
572;SDS011;271;51.114;13.780;2023-03-05T16:21:38;18.27;;;3.85;;
572;SDS011;271;51.114;13.780;2023-03-05T16:24:26;24.70;;;7.38;;
572;SDS011;271;51.114;13.780;2023-03-05T16:27:14;22.35;;;4.75;;
572;SDS011;271;51.114;13.780;2023-03-05T16:30:02;18.25;;;3.65;;
572;SDS011;271;51.114;13.780;2023-03-05T16:32:51;31.83;;;7.72;;
572;SDS011;271;51.114;13.780;2023-03-05T16:35:39;22.25;;;5.40;;
572;SDS011;271;51.114;13.780;2023-03-05T16:38:26;23.17;;;5.88;;
572;SDS011;271;51.114;13.780;2023-03-05T16:41:14;21.38;;;5.22;;
572;SDS011;271;51.114;13.780;2023-03-05T16:44:03;33.08;;;9.57;;
572;SDS011;271;51.114;13.780;2023-03-05T16:46:51;36.92;;;9.90;;
572;SDS011;271;51.114;13.780;2023-03-05T16:49:40;20.15;;;5.82;;
572;SDS011;271;51.114;13.780;2023-03-05T16:52:28;31.55;;;10.02;;
572;SDS011;271;51.114;13.780;2023-03-05T16:55:16;27.17;;;7.75;;
572;SDS011;271;51.114;13.780;2023-03-05T16:58:04;24.35;;;7.20;;
572;SDS011;271;51.114;13.780;2023-03-05T17:00:51;31.75;;;9.80;;
572;SDS011;271;51.114;13.780;2023-03-05T17:03:42;22.83;;;5.85;;
572;SDS011;271;51.114;13.780;2023-03-05T17:06:32;20.65;;;6.03;;
572;SDS011;271;51.114;13.780;2023-03-05T17:09:20;23.40;;;8.63;;
572;SDS011;271;51.114;13.780;2023-03-05T17:12:09;18.85;;;4.57;;
572;SDS011;271;51.114;13.780;2023-03-05T17:14:57;21.75;;;6.70;;
572;SDS011;271;51.114;13.780;2023-03-05T17:17:44;18.08;;;4.43;;
572;SDS011;271;51.114;13.780;2023-03-05T17:20:32;19.00;;;4.30;;
572;SDS011;271;51.114;13.780;2023-03-05T17:23:22;21.10;;;3.88;;
572;SDS011;271;51.114;13.780;2023-03-05T17:26:11;18.05;;;3.40;;
572;SDS011;271;51.114;13.780;2023-03-05T17:29:01;20.33;;;3.10;;
572;SDS011;271;51.114;13.780;2023-03-05T17:31:49;19.27;;;4.20;;
572;SDS011;271;51.114;13.780;2023-03-05T17:34:38;16.77;;;3.00;;
572;SDS011;271;51.114;13.780;2023-03-05T17:37:26;18.05;;;2.90;;
572;SDS011;271;51.114;13.780;2023-03-05T17:40:15;17.25;;;3.03;;
572;SDS011;271;51.114;13.780;2023-03-05T17:43:03;20.02;;;3.55;;
572;SDS011;271;51.114;13.780;2023-03-05T17:45:51;16.50;;;2.80;;
572;SDS011;271;51.114;13.780;2023-03-05T17:48:44;18.33;;;3.50;;
572;SDS011;271;51.114;13.780;2023-03-05T17:51:31;18.10;;;3.53;;